sensor_id;sensor_type;location;lat;lon;timestamp;P1;durP1;ratioP1;P2;durP2;ratioP2
30635;SDS011;17400;52.392;9.750;2023-08-01T00:00:27;2.60;;;0.63;;
30635;SDS011;17400;52.392;9.750;2023-08-01T00:02:55;1.73;;;0.75;;
30635;SDS011;17400;52.392;9.750;2023-08-01T00:05:23;2.67;;;0.98;;
30635;SDS011;17400;52.392;9.750;2023-08-01T00:07:51;1.58;;;0.90;;
30635;SDS011;17400;52.392;9.750;2023-08-01T00:10:19;1.10;;;0.63;;
30635;SDS011;17400;52.392;9.750;2023-08-01T00:12:48;1.42;;;0.57;;
30635;SDS011;17400;52.392;9.750;2023-08-01T00:15:16;2.05;;;0.90;;
30635;SDS011;17400;52.392;9.750;2023-08-01T00:17:44;0.93;;;0.50;;
30635;SDS011;17400;52.392;9.750;2023-08-01T00:20:12;1.23;;;0.65;;
30635;SDS011;17400;52.392;9.750;2023-08-01T00:22:40;1.50;;;1.02;;
30635;SDS011;17400;52.392;9.750;2023-08-01T00:25:09;1.27;;;0.50;;
30635;SDS011;17400;52.392;9.750;2023-08-01T00:27:40;1.60;;;0.63;;
30635;SDS011;17400;52.392;9.750;2023-08-01T00:30:09;1.13;;;0.55;;
30635;SDS011;17400;52.392;9.750;2023-08-01T00:32:38;0.57;;;0.57;;
30635;SDS011;17400;52.392;9.750;2023-08-01T00:35:06;0.90;;;0.60;;
30635;SDS011;17400;52.392;9.750;2023-08-01T00:37:34;1.23;;;0.65;;
30635;SDS011;17400;52.392;9.750;2023-08-01T00:40:02;0.70;;;0.68;;
30635;SDS011;17400;52.392;9.750;2023-08-01T00:42:31;0.75;;;0.52;;
30635;SDS011;17400;52.392;9.750;2023-08-01T00:44:59;1.30;;;0.82;;
30635;SDS011;17400;52.392;9.750;2023-08-01T00:47:28;2.88;;;0.80;;
30635;SDS011;17400;52.392;9.750;2023-08-01T00:49:59;3.58;;;1.00;;
30635;SDS011;17400;52.392;9.750;2023-08-01T00:52:28;1.13;;;0.80;;
30635;SDS011;17400;52.392;9.750;2023-08-01T00:54:57;1.25;;;0.60;;
30635;SDS011;17400;52.392;9.750;2023-08-01T00:57:27;0.85;;;0.55;;
30635;SDS011;17400;52.392;9.750;2023-08-01T00:59:55;1.25;;;0.70;;
30635;SDS011;17400;52.392;9.750;2023-08-01T01:02:24;1.75;;;0.85;;
30635;SDS011;17400;52.392;9.750;2023-08-01T01:04:53;1.30;;;0.80;;
30635;SDS011;17400;52.392;9.750;2023-08-01T01:07:21;3.30;;;0.65;;
30635;SDS011;17400;52.392;9.750;2023-08-01T01:09:49;0.85;;;0.63;;
30635;SDS011;17400;52.392;9.750;2023-08-01T01:12:17;0.90;;;0.55;;
30635;SDS011;17400;52.392;9.750;2023-08-01T01:14:45;1.15;;;0.88;;
30635;SDS011;17400;52.392;9.750;2023-08-01T01:17:13;1.55;;;0.90;;
30635;SDS011;17400;52.392;9.750;2023-08-01T01:19:41;2.03;;;0.98;;
30635;SDS011;17400;52.392;9.750;2023-08-01T01:22:11;1.67;;;1.20;;
30635;SDS011;17400;52.392;9.750;2023-08-01T01:24:40;1.17;;;0.80;;
30635;SDS011;17400;52.392;9.750;2023-08-01T01:27:09;1.17;;;0.82;;
30635;SDS011;17400;52.392;9.750;2023-08-01T01:29:37;2.08;;;1.80;;
30635;SDS011;17400;52.392;9.750;2023-08-01T01:32:06;1.15;;;0.85;;
30635;SDS011;17400;52.392;9.750;2023-08-01T01:34:34;0.90;;;0.65;;
30635;SDS011;17400;52.392;9.750;2023-08-01T01:37:02;1.45;;;0.90;;
30635;SDS011;17400;52.392;9.750;2023-08-01T01:39:31;1.23;;;1.00;;
30635;SDS011;17400;52.392;9.750;2023-08-01T01:41:59;1.10;;;0.88;;
30635;SDS011;17400;52.392;9.750;2023-08-01T01:44:27;2.30;;;1.00;;
30635;SDS011;17400;52.392;9.750;2023-08-01T01:46:55;2.88;;;1.02;;
30635;SDS011;17400;52.392;9.750;2023-08-01T01:49:23;2.50;;;1.02;;
30635;SDS011;17400;52.392;9.750;2023-08-01T01:51:52;1.17;;;0.90;;
30635;SDS011;17400;52.392;9.750;2023-08-01T01:54:23;1.33;;;0.70;;
30635;SDS011;17400;52.392;9.750;2023-08-01T01:56:53;1.10;;;0.95;;
30635;SDS011;17400;52.392;9.750;2023-08-01T01:59:21;0.98;;;0.68;;
30635;SDS011;17400;52.392;9.750;2023-08-01T02:01:49;1.02;;;0.63;;
30635;SDS011;17400;52.392;9.750;2023-08-01T02:04:17;1.13;;;0.52;;
30635;SDS011;17400;52.392;9.750;2023-08-01T02:06:45;0.75;;;0.57;;
30635;SDS011;17400;52.392;9.750;2023-08-01T02:09:15;1.48;;;0.65;;
30635;SDS011;17400;52.392;9.750;2023-08-01T02:11:43;0.52;;;0.50;;
30635;SDS011;17400;52.392;9.750;2023-08-01T02:14:12;1.38;;;0.75;;
30635;SDS011;17400;52.392;9.750;2023-08-01T02:16:43;1.48;;;0.60;;
30635;SDS011;17400;52.392;9.750;2023-08-01T02:19:12;2.13;;;0.70;;
30635;SDS011;17400;52.392;9.750;2023-08-01T02:21:39;1.45;;;0.80;;
30635;SDS011;17400;52.392;9.750;2023-08-01T02:24:07;1.27;;;0.80;;
30635;SDS011;17400;52.392;9.750;2023-08-01T02:26:35;1.52;;;0.77;;
30635;SDS011;17400;52.392;9.750;2023-08-01T02:29:04;0.52;;;0.40;;
30635;SDS011;17400;52.392;9.750;2023-08-01T02:31:33;0.65;;;0.50;;
30635;SDS011;17400;52.392;9.750;2023-08-01T02:34:02;1.25;;;0.55;;
30635;SDS011;17400;52.392;9.750;2023-08-01T02:36:29;1.45;;;0.57;;
30635;SDS011;17400;52.392;9.750;2023-08-01T02:38:57;0.35;;;0.30;;
30635;SDS011;17400;52.392;9.750;2023-08-01T02:41:25;2.03;;;0.68;;
30635;SDS011;17400;52.392;9.750;2023-08-01T02:43:53;3.45;;;0.63;;
30635;SDS011;17400;52.392;9.750;2023-08-01T02:46:21;2.05;;;1.08;;
30635;SDS011;17400;52.392;9.750;2023-08-01T02:48:50;2.60;;;1.40;;
30635;SDS011;17400;52.392;9.750;2023-08-01T02:51:18;1.25;;;0.73;;
30635;SDS011;17400;52.392;9.750;2023-08-01T02:53:46;1.00;;;0.47;;
30635;SDS011;17400;52.392;9.750;2023-08-01T02:56:14;1.10;;;0.50;;
30635;SDS011;17400;52.392;9.750;2023-08-01T02:58:41;0.65;;;0.60;;
30635;SDS011;17400;52.392;9.750;2023-08-01T03:01:09;1.52;;;0.50;;
30635;SDS011;17400;52.392;9.750;2023-08-01T03:03:38;1.25;;;0.60;;
30635;SDS011;17400;52.392;9.750;2023-08-01T03:06:09;1.08;;;0.32;;
30635;SDS011;17400;52.392;9.750;2023-08-01T03:08:39;2.70;;;0.40;;
30635;SDS011;17400;52.392;9.750;2023-08-01T03:11:07;1.27;;;0.82;;
30635;SDS011;17400;52.392;9.750;2023-08-01T03:13:35;0.95;;;0.57;;
30635;SDS011;17400;52.392;9.750;2023-08-01T03:16:03;0.45;;;0.28;;
30635;SDS011;17400;52.392;9.750;2023-08-01T03:18:31;1.40;;;0.47;;
30635;SDS011;17400;52.392;9.750;2023-08-01T03:20:59;0.95;;;0.40;;
30635;SDS011;17400;52.392;9.750;2023-08-01T03:23:31;0.38;;;0.32;;
30635;SDS011;17400;52.392;9.750;2023-08-01T03:25:59;0.90;;;0.30;;
30635;SDS011;17400;52.392;9.750;2023-08-01T03:28:27;0.98;;;0.45;;
30635;SDS011;17400;52.392;9.750;2023-08-01T03:30:55;0.60;;;0.43;;
30635;SDS011;17400;52.392;9.750;2023-08-01T03:33:23;1.23;;;0.50;;
30635;SDS011;17400;52.392;9.750;2023-08-01T03:35:51;0.30;;;0.30;;
30635;SDS011;17400;52.392;9.750;2023-08-01T03:38:18;0.65;;;0.43;;
30635;SDS011;17400;52.392;9.750;2023-08-01T03:40:48;1.38;;;0.32;;
30635;SDS011;17400;52.392;9.750;2023-08-01T03:43:16;0.60;;;0.30;;
30635;SDS011;17400;52.392;9.750;2023-08-01T03:45:49;1.23;;;0.47;;
30635;SDS011;17400;52.392;9.750;2023-08-01T03:48:17;2.65;;;0.50;;
30635;SDS011;17400;52.392;9.750;2023-08-01T03:50:45;0.68;;;0.50;;
30635;SDS011;17400;52.392;9.750;2023-08-01T03:53:13;0.80;;;0.30;;
30635;SDS011;17400;52.392;9.750;2023-08-01T03:55:43;1.13;;;0.38;;
30635;SDS011;17400;52.392;9.750;2023-08-01T03:58:12;0.77;;;0.45;;
30635;SDS011;17400;52.392;9.750;2023-08-01T04:00:40;1.33;;;0.40;;
30635;SDS011;17400;52.392;9.750;2023-08-01T04:03:08;1.05;;;0.47;;
30635;SDS011;17400;52.392;9.750;2023-08-01T04:05:36;1.35;;;0.50;;
30635;SDS011;17400;52.392;9.750;2023-08-01T04:08:04;0.73;;;0.30;;
30635;SDS011;17400;52.392;9.750;2023-08-01T04:10:32;1.13;;;0.50;;
30635;SDS011;17400;52.392;9.750;2023-08-01T04:13:00;0.30;;;0.28;;
30635;SDS011;17400;52.392;9.750;2023-08-01T04:15:29;1.88;;;0.73;;
30635;SDS011;17400;52.392;9.750;2023-08-01T04:17:57;0.30;;;0.20;;
30635;SDS011;17400;52.392;9.750;2023-08-01T04:20:25;4.63;;;0.88;;
30635;SDS011;17400;52.392;9.750;2023-08-01T04:22:53;3.03;;;1.45;;
30635;SDS011;17400;52.392;9.750;2023-08-01T04:25:21;2.47;;;1.10;;
30635;SDS011;17400;52.392;9.750;2023-08-01T04:27:51;2.17;;;0.60;;
30635;SDS011;17400;52.392;9.750;2023-08-01T04:30:19;1.10;;;0.70;;
30635;SDS011;17400;52.392;9.750;2023-08-01T04:32:48;1.23;;;1.00;;
30635;SDS011;17400;52.392;9.750;2023-08-01T04:35:16;2.67;;;1.75;;
30635;SDS011;17400;52.392;9.750;2023-08-01T04:37:44;2.45;;;1.33;;
30635;SDS011;17400;52.392;9.750;2023-08-01T04:40:12;1.15;;;0.60;;
30635;SDS011;17400;52.392;9.750;2023-08-01T04:42:39;1.05;;;0.52;;
30635;SDS011;17400;52.392;9.750;2023-08-01T04:45:07;1.38;;;0.57;;
30635;SDS011;17400;52.392;9.750;2023-08-01T04:47:36;2.35;;;1.17;;
30635;SDS011;17400;52.392;9.750;2023-08-01T04:50:05;2.50;;;0.70;;
30635;SDS011;17400;52.392;9.750;2023-08-01T04:52:34;3.00;;;0.75;;
30635;SDS011;17400;52.392;9.750;2023-08-01T04:55:02;1.00;;;0.65;;
30635;SDS011;17400;52.392;9.750;2023-08-01T04:57:31;2.38;;;0.80;;
30635;SDS011;17400;52.392;9.750;2023-08-01T04:59:59;1.25;;;0.63;;
30635;SDS011;17400;52.392;9.750;2023-08-01T05:02:28;1.13;;;0.57;;
30635;SDS011;17400;52.392;9.750;2023-08-01T05:04:56;2.65;;;1.27;;
30635;SDS011;17400;52.392;9.750;2023-08-01T05:07:25;1.92;;;1.20;;
30635;SDS011;17400;52.392;9.750;2023-08-01T05:09:53;1.02;;;0.90;;
30635;SDS011;17400;52.392;9.750;2023-08-01T05:12:21;1.67;;;0.95;;
30635;SDS011;17400;52.392;9.750;2023-08-01T05:14:48;1.52;;;0.88;;
30635;SDS011;17400;52.392;9.750;2023-08-01T05:17:16;2.13;;;0.73;;
30635;SDS011;17400;52.392;9.750;2023-08-01T05:19:44;1.77;;;0.80;;
30635;SDS011;17400;52.392;9.750;2023-08-01T05:22:12;1.38;;;0.85;;
30635;SDS011;17400;52.392;9.750;2023-08-01T05:24:41;1.73;;;0.90;;
30635;SDS011;17400;52.392;9.750;2023-08-01T05:27:09;1.55;;;0.70;;
30635;SDS011;17400;52.392;9.750;2023-08-01T05:29:37;1.80;;;0.90;;
30635;SDS011;17400;52.392;9.750;2023-08-01T05:32:05;3.72;;;0.88;;
30635;SDS011;17400;52.392;9.750;2023-08-01T05:34:33;2.88;;;0.47;;
30635;SDS011;17400;52.392;9.750;2023-08-01T05:37:01;2.40;;;1.13;;
30635;SDS011;17400;52.392;9.750;2023-08-01T05:39:28;4.97;;;1.42;;
30635;SDS011;17400;52.392;9.750;2023-08-01T05:41:58;2.28;;;0.90;;
30635;SDS011;17400;52.392;9.750;2023-08-01T05:44:25;2.58;;;1.50;;
30635;SDS011;17400;52.392;9.750;2023-08-01T05:46:53;5.78;;;2.33;;
30635;SDS011;17400;52.392;9.750;2023-08-01T05:49:21;3.55;;;1.75;;
30635;SDS011;17400;52.392;9.750;2023-08-01T05:51:49;2.85;;;1.27;;
30635;SDS011;17400;52.392;9.750;2023-08-01T05:54:17;2.72;;;0.95;;
30635;SDS011;17400;52.392;9.750;2023-08-01T05:56:46;4.82;;;1.20;;
30635;SDS011;17400;52.392;9.750;2023-08-01T05:59:16;1.67;;;0.77;;
30635;SDS011;17400;52.392;9.750;2023-08-01T06:01:43;3.03;;;1.50;;
30635;SDS011;17400;52.392;9.750;2023-08-01T06:04:12;2.22;;;1.05;;
30635;SDS011;17400;52.392;9.750;2023-08-01T06:06:40;4.22;;;1.45;;
30635;SDS011;17400;52.392;9.750;2023-08-01T06:09:08;2.55;;;1.02;;
30635;SDS011;17400;52.392;9.750;2023-08-01T06:11:36;1.88;;;1.10;;
30635;SDS011;17400;52.392;9.750;2023-08-01T06:14:06;3.05;;;1.38;;
30635;SDS011;17400;52.392;9.750;2023-08-01T06:16:35;2.78;;;1.50;;
30635;SDS011;17400;52.392;9.750;2023-08-01T06:19:03;4.78;;;1.75;;
30635;SDS011;17400;52.392;9.750;2023-08-01T06:21:31;3.70;;;1.70;;
30635;SDS011;17400;52.392;9.750;2023-08-01T06:23:59;2.72;;;1.65;;
30635;SDS011;17400;52.392;9.750;2023-08-01T06:26:27;4.25;;;1.80;;
30635;SDS011;17400;52.392;9.750;2023-08-01T06:28:55;2.70;;;1.65;;
30635;SDS011;17400;52.392;9.750;2023-08-01T06:31:22;3.13;;;1.95;;
30635;SDS011;17400;52.392;9.750;2023-08-01T06:33:52;3.42;;;1.55;;
30635;SDS011;17400;52.392;9.750;2023-08-01T06:36:20;3.42;;;2.03;;
30635;SDS011;17400;52.392;9.750;2023-08-01T06:38:48;3.90;;;2.38;;
30635;SDS011;17400;52.392;9.750;2023-08-01T06:41:16;2.90;;;1.73;;
30635;SDS011;17400;52.392;9.750;2023-08-01T06:43:43;6.05;;;2.47;;
30635;SDS011;17400;52.392;9.750;2023-08-01T06:46:12;4.70;;;1.95;;
30635;SDS011;17400;52.392;9.750;2023-08-01T06:48:39;4.70;;;3.33;;
30635;SDS011;17400;52.392;9.750;2023-08-01T06:51:09;6.95;;;2.72;;
30635;SDS011;17400;52.392;9.750;2023-08-01T06:53:36;3.10;;;1.88;;
30635;SDS011;17400;52.392;9.750;2023-08-01T06:56:04;4.15;;;2.10;;
30635;SDS011;17400;52.392;9.750;2023-08-01T06:58:32;6.18;;;2.92;;
30635;SDS011;17400;52.392;9.750;2023-08-01T07:01:00;4.18;;;2.60;;
30635;SDS011;17400;52.392;9.750;2023-08-01T07:03:28;4.57;;;2.33;;
30635;SDS011;17400;52.392;9.750;2023-08-01T07:05:56;4.07;;;1.98;;
30635;SDS011;17400;52.392;9.750;2023-08-01T07:08:25;7.22;;;3.45;;
30635;SDS011;17400;52.392;9.750;2023-08-01T07:10:53;5.70;;;2.92;;
30635;SDS011;17400;52.392;9.750;2023-08-01T07:13:21;5.65;;;3.08;;
30635;SDS011;17400;52.392;9.750;2023-08-01T07:15:51;4.35;;;2.88;;
30635;SDS011;17400;52.392;9.750;2023-08-01T07:18:19;6.53;;;3.67;;
30635;SDS011;17400;52.392;9.750;2023-08-01T07:20:58;5.40;;;3.20;;
30635;SDS011;17400;52.392;9.750;2023-08-01T07:23:28;6.15;;;3.15;;
30635;SDS011;17400;52.392;9.750;2023-08-01T07:25:56;4.82;;;3.40;;
30635;SDS011;17400;52.392;9.750;2023-08-01T07:28:24;7.00;;;3.53;;
30635;SDS011;17400;52.392;9.750;2023-08-01T07:30:57;4.53;;;2.90;;
30635;SDS011;17400;52.392;9.750;2023-08-01T07:33:26;5.95;;;3.75;;
30635;SDS011;17400;52.392;9.750;2023-08-01T07:35:54;7.05;;;3.60;;
30635;SDS011;17400;52.392;9.750;2023-08-01T07:38:22;5.45;;;4.15;;
30635;SDS011;17400;52.392;9.750;2023-08-01T07:40:51;6.30;;;3.97;;
30635;SDS011;17400;52.392;9.750;2023-08-01T07:43:19;9.70;;;3.63;;
30635;SDS011;17400;52.392;9.750;2023-08-01T07:45:47;6.25;;;3.45;;
30635;SDS011;17400;52.392;9.750;2023-08-01T07:48:17;7.43;;;3.72;;
30635;SDS011;17400;52.392;9.750;2023-08-01T07:50:48;6.25;;;4.05;;
30635;SDS011;17400;52.392;9.750;2023-08-01T07:53:16;7.53;;;4.35;;
30635;SDS011;17400;52.392;9.750;2023-08-01T07:55:44;6.68;;;4.13;;
30635;SDS011;17400;52.392;9.750;2023-08-01T07:58:13;7.50;;;4.88;;
30635;SDS011;17400;52.392;9.750;2023-08-01T08:00:41;6.85;;;4.05;;
30635;SDS011;17400;52.392;9.750;2023-08-01T08:03:09;8.18;;;4.28;;
30635;SDS011;17400;52.392;9.750;2023-08-01T08:05:37;5.32;;;3.92;;
30635;SDS011;17400;52.392;9.750;2023-08-01T08:08:05;8.25;;;5.22;;
30635;SDS011;17400;52.392;9.750;2023-08-01T08:10:37;10.57;;;5.53;;
30635;SDS011;17400;52.392;9.750;2023-08-01T08:13:09;8.23;;;4.70;;
30635;SDS011;17400;52.392;9.750;2023-08-01T08:15:38;7.00;;;4.43;;
30635;SDS011;17400;52.392;9.750;2023-08-01T08:18:06;4.93;;;3.30;;
30635;SDS011;17400;52.392;9.750;2023-08-01T08:20:42;7.88;;;3.70;;
30635;SDS011;17400;52.392;9.750;2023-08-01T08:23:12;8.82;;;3.80;;
30635;SDS011;17400;52.392;9.750;2023-08-01T08:25:40;10.05;;;4.00;;
30635;SDS011;17400;52.392;9.750;2023-08-01T08:28:08;11.57;;;4.28;;
30635;SDS011;17400;52.392;9.750;2023-08-01T08:30:39;10.13;;;5.65;;
30635;SDS011;17400;52.392;9.750;2023-08-01T08:33:07;7.45;;;3.83;;
30635;SDS011;17400;52.392;9.750;2023-08-01T08:35:39;9.63;;;3.63;;
30635;SDS011;17400;52.392;9.750;2023-08-01T08:38:06;7.15;;;3.05;;
30635;SDS011;17400;52.392;9.750;2023-08-01T08:40:36;5.50;;;3.88;;
30635;SDS011;17400;52.392;9.750;2023-08-01T08:43:08;6.22;;;3.95;;
30635;SDS011;17400;52.392;9.750;2023-08-01T08:45:39;5.03;;;3.30;;
30635;SDS011;17400;52.392;9.750;2023-08-01T08:48:09;8.10;;;2.83;;
30635;SDS011;17400;52.392;9.750;2023-08-01T08:50:40;6.53;;;3.13;;
30635;SDS011;17400;52.392;9.750;2023-08-01T08:53:10;5.35;;;2.50;;
30635;SDS011;17400;52.392;9.750;2023-08-01T08:55:39;5.43;;;2.83;;
30635;SDS011;17400;52.392;9.750;2023-08-01T08:58:08;7.80;;;2.95;;
30635;SDS011;17400;52.392;9.750;2023-08-01T09:00:36;6.80;;;2.72;;
30635;SDS011;17400;52.392;9.750;2023-08-01T09:03:09;6.72;;;2.90;;
30635;SDS011;17400;52.392;9.750;2023-08-01T09:05:48;3.70;;;2.45;;
30635;SDS011;17400;52.392;9.750;2023-08-01T09:08:18;6.28;;;2.90;;
30635;SDS011;17400;52.392;9.750;2023-08-01T09:10:47;4.05;;;2.42;;
30635;SDS011;17400;52.392;9.750;2023-08-01T09:13:15;5.20;;;2.78;;
30635;SDS011;17400;52.392;9.750;2023-08-01T09:15:43;8.05;;;3.13;;
30635;SDS011;17400;52.392;9.750;2023-08-01T09:18:15;8.18;;;3.45;;
30635;SDS011;17400;52.392;9.750;2023-08-01T09:20:43;5.55;;;2.15;;
30635;SDS011;17400;52.392;9.750;2023-08-01T09:23:12;3.70;;;2.50;;
30635;SDS011;17400;52.392;9.750;2023-08-01T09:25:41;4.05;;;2.20;;
30635;SDS011;17400;52.392;9.750;2023-08-01T09:28:15;4.78;;;2.60;;
30635;SDS011;17400;52.392;9.750;2023-08-01T09:30:45;5.88;;;2.20;;
30635;SDS011;17400;52.392;9.750;2023-08-01T09:33:18;4.35;;;2.10;;
30635;SDS011;17400;52.392;9.750;2023-08-01T09:35:46;4.38;;;2.50;;
30635;SDS011;17400;52.392;9.750;2023-08-01T09:38:16;6.38;;;2.42;;
30635;SDS011;17400;52.392;9.750;2023-08-01T09:40:45;3.28;;;1.98;;
30635;SDS011;17400;52.392;9.750;2023-08-01T09:43:13;3.33;;;1.85;;
30635;SDS011;17400;52.392;9.750;2023-08-01T09:45:51;5.68;;;2.10;;
30635;SDS011;17400;52.392;9.750;2023-08-01T09:48:24;4.75;;;2.30;;
30635;SDS011;17400;52.392;9.750;2023-08-01T09:51:06;3.95;;;2.00;;
30635;SDS011;17400;52.392;9.750;2023-08-01T09:53:46;3.75;;;1.65;;
30635;SDS011;17400;52.392;9.750;2023-08-01T09:56:18;4.72;;;1.70;;
30635;SDS011;17400;52.392;9.750;2023-08-01T09:58:48;4.45;;;2.22;;
30635;SDS011;17400;52.392;9.750;2023-08-01T10:01:17;3.92;;;2.60;;
30635;SDS011;17400;52.392;9.750;2023-08-01T10:03:48;3.35;;;2.03;;
30635;SDS011;17400;52.392;9.750;2023-08-01T10:06:17;3.38;;;2.35;;
30635;SDS011;17400;52.392;9.750;2023-08-01T10:08:47;3.15;;;1.60;;
30635;SDS011;17400;52.392;9.750;2023-08-01T10:11:17;4.47;;;2.33;;
30635;SDS011;17400;52.392;9.750;2023-08-01T10:13:47;5.63;;;2.38;;
30635;SDS011;17400;52.392;9.750;2023-08-01T10:16:16;3.38;;;1.50;;
30635;SDS011;17400;52.392;9.750;2023-08-01T10:18:45;2.33;;;1.60;;
30635;SDS011;17400;52.392;9.750;2023-08-01T10:21:15;6.13;;;1.73;;
30635;SDS011;17400;52.392;9.750;2023-08-01T10:23:45;6.15;;;1.88;;
30635;SDS011;17400;52.392;9.750;2023-08-01T10:26:13;4.88;;;2.03;;
30635;SDS011;17400;52.392;9.750;2023-08-01T10:28:49;3.63;;;1.95;;
30635;SDS011;17400;52.392;9.750;2023-08-01T10:31:21;2.70;;;1.40;;
30635;SDS011;17400;52.392;9.750;2023-08-01T10:33:49;4.22;;;1.55;;
30635;SDS011;17400;52.392;9.750;2023-08-01T10:36:23;3.67;;;1.83;;
30635;SDS011;17400;52.392;9.750;2023-08-01T10:38:53;3.60;;;1.77;;
30635;SDS011;17400;52.392;9.750;2023-08-01T10:41:24;4.53;;;1.60;;
30635;SDS011;17400;52.392;9.750;2023-08-01T10:44:04;3.63;;;2.13;;
30635;SDS011;17400;52.392;9.750;2023-08-01T10:46:49;2.22;;;1.48;;
30635;SDS011;17400;52.392;9.750;2023-08-01T10:49:19;3.20;;;2.10;;
30635;SDS011;17400;52.392;9.750;2023-08-01T10:51:49;4.95;;;2.47;;
30635;SDS011;17400;52.392;9.750;2023-08-01T10:54:18;5.90;;;2.58;;
30635;SDS011;17400;52.392;9.750;2023-08-01T10:56:48;4.25;;;1.95;;
30635;SDS011;17400;52.392;9.750;2023-08-01T10:59:18;4.72;;;2.50;;
30635;SDS011;17400;52.392;9.750;2023-08-01T11:01:47;4.00;;;2.40;;
30635;SDS011;17400;52.392;9.750;2023-08-01T11:04:16;1.90;;;1.25;;
30635;SDS011;17400;52.392;9.750;2023-08-01T11:06:45;3.08;;;1.67;;
30635;SDS011;17400;52.392;9.750;2023-08-01T11:09:17;4.22;;;2.17;;
30635;SDS011;17400;52.392;9.750;2023-08-01T11:11:46;4.47;;;2.42;;
30635;SDS011;17400;52.392;9.750;2023-08-01T11:14:16;5.97;;;1.98;;
30635;SDS011;17400;52.392;9.750;2023-08-01T11:16:47;4.57;;;2.22;;
30635;SDS011;17400;52.392;9.750;2023-08-01T11:19:19;5.10;;;1.77;;
30635;SDS011;17400;52.392;9.750;2023-08-01T11:21:48;3.60;;;1.95;;
30635;SDS011;17400;52.392;9.750;2023-08-01T11:24:19;4.55;;;1.85;;
30635;SDS011;17400;52.392;9.750;2023-08-01T11:26:48;3.75;;;1.80;;
30635;SDS011;17400;52.392;9.750;2023-08-01T11:29:17;2.80;;;1.35;;
30635;SDS011;17400;52.392;9.750;2023-08-01T11:31:53;3.00;;;1.77;;
30635;SDS011;17400;52.392;9.750;2023-08-01T11:34:21;2.92;;;1.88;;
30635;SDS011;17400;52.392;9.750;2023-08-01T11:36:49;3.63;;;1.55;;
30635;SDS011;17400;52.392;9.750;2023-08-01T11:39:19;2.63;;;1.50;;
30635;SDS011;17400;52.392;9.750;2023-08-01T11:41:49;2.05;;;1.35;;
30635;SDS011;17400;52.392;9.750;2023-08-01T11:44:17;2.17;;;1.48;;
30635;SDS011;17400;52.392;9.750;2023-08-01T11:46:45;2.88;;;1.58;;
30635;SDS011;17400;52.392;9.750;2023-08-01T11:49:13;4.30;;;2.35;;
30635;SDS011;17400;52.392;9.750;2023-08-01T11:51:42;4.45;;;1.80;;
30635;SDS011;17400;52.392;9.750;2023-08-01T11:54:13;3.72;;;2.42;;
30635;SDS011;17400;52.392;9.750;2023-08-01T11:56:43;3.38;;;1.98;;
30635;SDS011;17400;52.392;9.750;2023-08-01T11:59:11;2.65;;;1.73;;
30635;SDS011;17400;52.392;9.750;2023-08-01T12:01:41;3.30;;;1.75;;
30635;SDS011;17400;52.392;9.750;2023-08-01T12:04:10;5.85;;;1.92;;
30635;SDS011;17400;52.392;9.750;2023-08-01T12:06:38;2.72;;;1.42;;
30635;SDS011;17400;52.392;9.750;2023-08-01T12:09:09;3.10;;;2.17;;
30635;SDS011;17400;52.392;9.750;2023-08-01T12:11:38;4.68;;;2.45;;
30635;SDS011;17400;52.392;9.750;2023-08-01T12:14:08;2.63;;;1.80;;
30635;SDS011;17400;52.392;9.750;2023-08-01T12:16:38;4.78;;;2.15;;
30635;SDS011;17400;52.392;9.750;2023-08-01T12:19:08;5.15;;;1.98;;
30635;SDS011;17400;52.392;9.750;2023-08-01T12:21:36;3.58;;;1.50;;
30635;SDS011;17400;52.392;9.750;2023-08-01T12:24:04;3.15;;;1.70;;
30635;SDS011;17400;52.392;9.750;2023-08-01T12:26:32;6.15;;;4.22;;
30635;SDS011;17400;52.392;9.750;2023-08-01T12:29:00;3.65;;;2.30;;
30635;SDS011;17400;52.392;9.750;2023-08-01T12:31:29;4.28;;;2.53;;
30635;SDS011;17400;52.392;9.750;2023-08-01T12:33:57;3.63;;;2.15;;
30635;SDS011;17400;52.392;9.750;2023-08-01T12:36:25;2.65;;;1.80;;
30635;SDS011;17400;52.392;9.750;2023-08-01T12:38:54;3.38;;;1.67;;
30635;SDS011;17400;52.392;9.750;2023-08-01T12:41:22;3.60;;;1.95;;
30635;SDS011;17400;52.392;9.750;2023-08-01T12:43:50;3.47;;;1.55;;
30635;SDS011;17400;52.392;9.750;2023-08-01T12:46:18;4.15;;;1.80;;
30635;SDS011;17400;52.392;9.750;2023-08-01T12:48:48;3.38;;;2.00;;
30635;SDS011;17400;52.392;9.750;2023-08-01T12:51:15;5.28;;;2.95;;
30635;SDS011;17400;52.392;9.750;2023-08-01T12:53:43;2.65;;;1.98;;
30635;SDS011;17400;52.392;9.750;2023-08-01T12:56:11;4.43;;;1.77;;
30635;SDS011;17400;52.392;9.750;2023-08-01T12:58:39;2.63;;;1.58;;
30635;SDS011;17400;52.392;9.750;2023-08-01T13:01:08;6.60;;;1.95;;
30635;SDS011;17400;52.392;9.750;2023-08-01T13:03:36;3.42;;;1.77;;
30635;SDS011;17400;52.392;9.750;2023-08-01T13:06:05;2.15;;;1.30;;
30635;SDS011;17400;52.392;9.750;2023-08-01T13:08:34;4.68;;;1.83;;
30635;SDS011;17400;52.392;9.750;2023-08-01T13:11:08;4.53;;;2.17;;
30635;SDS011;17400;52.392;9.750;2023-08-01T13:13:37;3.45;;;1.63;;
30635;SDS011;17400;52.392;9.750;2023-08-01T13:16:05;3.78;;;2.00;;
30635;SDS011;17400;52.392;9.750;2023-08-01T13:18:33;5.45;;;2.00;;
30635;SDS011;17400;52.392;9.750;2023-08-01T13:21:01;4.03;;;1.50;;
30635;SDS011;17400;52.392;9.750;2023-08-01T13:23:31;3.35;;;2.03;;
30635;SDS011;17400;52.392;9.750;2023-08-01T13:25:59;8.13;;;2.20;;
30635;SDS011;17400;52.392;9.750;2023-08-01T13:28:28;6.10;;;2.13;;
30635;SDS011;17400;52.392;9.750;2023-08-01T13:30:56;3.47;;;1.88;;
30635;SDS011;17400;52.392;9.750;2023-08-01T13:33:26;4.03;;;2.10;;
30635;SDS011;17400;52.392;9.750;2023-08-01T13:35:54;3.25;;;1.77;;
30635;SDS011;17400;52.392;9.750;2023-08-01T13:38:24;3.72;;;1.50;;
30635;SDS011;17400;52.392;9.750;2023-08-01T13:40:53;2.67;;;1.55;;
30635;SDS011;17400;52.392;9.750;2023-08-01T13:43:21;3.20;;;1.65;;
30635;SDS011;17400;52.392;9.750;2023-08-01T13:45:49;3.30;;;1.40;;
30635;SDS011;17400;52.392;9.750;2023-08-01T13:48:20;3.35;;;1.60;;
30635;SDS011;17400;52.392;9.750;2023-08-01T13:50:50;2.05;;;1.17;;
30635;SDS011;17400;52.392;9.750;2023-08-01T13:53:19;1.77;;;1.30;;
30635;SDS011;17400;52.392;9.750;2023-08-01T13:55:47;4.03;;;1.60;;
30635;SDS011;17400;52.392;9.750;2023-08-01T13:58:16;1.83;;;1.25;;
30635;SDS011;17400;52.392;9.750;2023-08-01T14:00:44;1.80;;;1.45;;
30635;SDS011;17400;52.392;9.750;2023-08-01T14:03:12;2.90;;;1.40;;
30635;SDS011;17400;52.392;9.750;2023-08-01T14:05:40;4.70;;;1.67;;
30635;SDS011;17400;52.392;9.750;2023-08-01T14:08:08;5.10;;;1.40;;
30635;SDS011;17400;52.392;9.750;2023-08-01T14:10:36;4.00;;;2.17;;
30635;SDS011;17400;52.392;9.750;2023-08-01T14:13:04;5.18;;;1.80;;
30635;SDS011;17400;52.392;9.750;2023-08-01T14:15:35;4.32;;;1.25;;
30635;SDS011;17400;52.392;9.750;2023-08-01T14:18:03;1.63;;;1.10;;
30635;SDS011;17400;52.392;9.750;2023-08-01T14:20:33;2.92;;;1.30;;
30635;SDS011;17400;52.392;9.750;2023-08-01T14:23:02;2.47;;;1.40;;
30635;SDS011;17400;52.392;9.750;2023-08-01T14:25:30;6.57;;;2.08;;
30635;SDS011;17400;52.392;9.750;2023-08-01T14:27:58;1.48;;;1.10;;
30635;SDS011;17400;52.392;9.750;2023-08-01T14:30:27;6.07;;;1.83;;
30635;SDS011;17400;52.392;9.750;2023-08-01T14:32:59;2.33;;;1.15;;
30635;SDS011;17400;52.392;9.750;2023-08-01T14:35:28;3.28;;;1.42;;
30635;SDS011;17400;52.392;9.750;2023-08-01T14:37:56;3.15;;;1.35;;
30635;SDS011;17400;52.392;9.750;2023-08-01T14:40:24;2.22;;;1.40;;
30635;SDS011;17400;52.392;9.750;2023-08-01T14:42:52;2.80;;;1.67;;
30635;SDS011;17400;52.392;9.750;2023-08-01T14:45:20;3.42;;;1.25;;
30635;SDS011;17400;52.392;9.750;2023-08-01T14:47:49;4.53;;;2.03;;
30635;SDS011;17400;52.392;9.750;2023-08-01T14:50:18;4.18;;;2.45;;
30635;SDS011;17400;52.392;9.750;2023-08-01T14:52:47;3.60;;;1.65;;
30635;SDS011;17400;52.392;9.750;2023-08-01T14:55:14;2.45;;;1.70;;
30635;SDS011;17400;52.392;9.750;2023-08-01T14:57:42;2.20;;;1.02;;